Time;durP1;ratioP1;P1;durP2;ratioP2;P2;SDS_P1;SDS_P2;PMS_P1;PMS_P2;Temp;Humidity;BMP_temperature;BMP_pressure;BME280_temperature;BME280_humidity;BME280_pressure;Samples;Min_cycle;Max_cycle;Signal;HPM_P1;HPM_P2
2022/11/15 00:01:16;;;;;;;11.82;6.15;;;10.70;99.90;;;10.30;100.00;97112.56;4962785;28;20066;-70
2022/11/15 00:03:44;;;;;;;10.50;6.40;;;10.80;99.90;;;10.26;100.00;97101.47;4976490;28;20129;-71
2022/11/15 00:06:11;;;;;;;11.07;5.90;;;10.70;99.90;;;10.29;100.00;97106.56;4964141;28;20057;-71
2022/11/15 00:08:38;;;;;;;9.63;6.55;;;10.80;99.90;;;10.26;100.00;97104.06;4960689;28;20675;-71
2022/11/15 00:11:05;;;;;;;8.13;5.60;;;10.80;99.90;;;10.23;100.00;97112.00;4964046;28;20070;-70
2022/11/15 00:13:32;;;;;;;9.98;5.15;;;10.80;99.90;;;10.25;100.00;97111.00;4962456;28;20408;-71
2022/11/15 00:16:01;;;;;;;9.00;5.63;;;10.80;99.90;;;10.29;100.00;97108.31;4966767;28;20165;-71
2022/11/15 00:18:29;;;;;;;8.18;4.95;;;10.90;99.90;;;10.33;100.00;97108.09;4961747;28;20074;-70
2022/11/15 00:21:06;;;;;;;10.10;5.43;;;10.90;99.90;;;10.35;100.00;97106.22;4962281;28;20050;-70
2022/11/15 00:23:33;;;;;;;9.02;4.90;;;10.80;99.90;;;10.32;100.00;97106.41;4960143;28;20055;-71
2022/11/15 00:26:01;;;;;;;7.63;5.22;;;10.80;99.90;;;10.36;100.00;97094.13;4963607;28;20544;-72
2022/11/15 00:28:28;;;;;;;9.75;4.85;;;10.90;99.90;;;10.34;100.00;97095.94;4963410;28;20055;-70
2022/11/15 00:31:04;;;;;;;7.38;4.68;;;10.90;99.90;;;10.37;100.00;97085.41;4962705;28;20067;-69
2022/11/15 00:33:32;;;;;;;7.82;4.82;;;11.00;99.90;;;10.37;100.00;97093.19;4975623;28;20055;-72
2022/11/15 00:36:10;;;;;;;7.20;4.93;;;10.90;99.90;;;10.33;100.00;97092.53;4962141;28;20069;-71
2022/11/15 00:38:39;;;;;;;7.95;4.80;;;10.90;99.90;;;10.40;100.00;97088.72;4964479;28;20061;-71
2022/11/15 00:41:07;;;;;;;9.98;5.15;;;10.90;99.90;;;10.37;100.00;97085.41;4963841;28;20144;-70
2022/11/15 00:43:36;;;;;;;6.93;4.53;;;10.90;99.90;;;10.35;100.00;97080.28;4961497;28;20059;-71
2022/11/15 00:46:03;;;;;;;6.25;4.65;;;10.90;99.90;;;10.35;100.00;97079.47;4962969;28;20126;-69
2022/11/15 00:48:31;;;;;;;7.28;4.47;;;10.90;99.90;;;10.33;100.00;97079.56;4952495;28;20055;-71
2022/11/15 00:50:58;;;;;;;6.47;4.43;;;10.90;99.90;;;10.38;100.00;97077.56;4958203;28;20066;-71
2022/11/15 00:53:25;;;;;;;7.30;4.30;;;10.90;99.90;;;10.34;100.00;97083.81;4961767;28;20058;-71
2022/11/15 00:55:52;;;;;;;8.35;4.43;;;10.90;99.90;;;10.40;100.00;97082.66;4959452;28;20051;-70
2022/11/15 00:58:19;;;;;;;6.72;4.60;;;10.90;99.90;;;10.40;100.00;97070.53;4961327;28;20416;-70
2022/11/15 01:00:46;;;;;;;9.38;4.75;;;10.90;99.90;;;10.42;100.00;97073.91;4962459;28;20121;-71
2022/11/15 01:03:13;;;;;;;6.00;3.95;;;11.00;99.90;;;10.47;100.00;97068.50;4975206;28;20129;-70
2022/11/15 01:05:40;;;;;;;6.25;4.00;;;11.10;99.90;;;10.50;100.00;97068.31;4965012;28;20166;-71
2022/11/15 01:08:14;;;;;;;7.05;3.85;;;11.10;99.90;;;10.49;100.00;97076.19;4965615;28;20059;-70
2022/11/15 01:10:41;;;;;;;7.47;4.22;;;11.10;99.90;;;10.51;100.00;97071.75;4964299;28;20051;-71
2022/11/15 01:13:08;;;;;;;8.43;3.85;;;11.10;99.90;;;10.58;100.00;97068.78;4960432;28;20062;-70
2022/11/15 01:15:40;;;;;;;5.80;3.35;;;11.10;99.90;;;10.53;100.00;97057.78;4964241;28;20058;-70
2022/11/15 01:18:07;;;;;;;6.40;3.55;;;11.10;99.90;;;10.57;100.00;97053.28;4963643;28;20454;-69
2022/11/15 01:20:39;;;;;;;5.05;3.25;;;11.00;99.90;;;10.57;100.00;97055.88;4977190;28;20513;-70
2022/11/15 01:23:06;;;;;;;7.50;3.83;;;11.00;99.90;;;10.54;100.00;97062.06;4960533;28;20049;-69
2022/11/15 01:25:33;;;;;;;8.80;3.90;;;11.00;99.90;;;10.48;100.00;97057.19;4963607;28;20050;-70
2022/11/15 01:28:00;;;;;;;6.38;3.33;;;11.00;99.90;;;10.56;100.00;97055.03;4963560;28;20054;-70
2022/11/15 01:30:27;;;;;;;5.88;3.20;;;11.00;99.90;;;10.48;100.00;97061.53;4964204;28;20054;-70
2022/11/15 01:32:54;;;;;;;9.23;4.10;;;11.10;99.90;;;10.58;100.00;97049.75;4963626;28;20047;-69
2022/11/15 01:35:21;;;;;;;6.35;3.50;;;11.10;99.90;;;10.45;100.00;97058.19;4976998;28;20050;-71
2022/11/15 01:37:48;;;;;;;5.45;3.15;;;11.10;99.90;;;10.47;100.00;97050.31;4963427;28;20406;-70
2022/11/15 01:40:15;;;;;;;5.72;3.55;;;11.00;99.90;;;10.40;100.00;97048.94;4962553;28;20050;-71
2022/11/15 01:42:42;;;;;;;6.30;2.85;;;11.00;99.90;;;10.37;100.00;97047.34;4965802;28;20172;-71
2022/11/15 01:45:17;;;;;;;5.60;3.20;;;11.00;99.90;;;10.37;100.00;97043.91;4961923;28;20065;-71
2022/11/15 01:47:54;;;;;;;8.60;3.70;;;11.00;99.90;;;10.35;100.00;97045.72;4978769;28;20059;-69
2022/11/15 01:50:30;;;;;;;7.32;3.60;;;10.90;99.90;;;10.39;100.00;97034.28;4962777;28;20043;-68
2022/11/15 01:52:57;;;;;;;5.63;3.95;;;10.90;99.90;;;10.37;100.00;97036.94;4964085;28;20075;-70
2022/11/15 01:55:27;;;;;;;5.97;3.75;;;10.90;99.90;;;10.31;100.00;97033.81;4960952;28;20046;-70
2022/11/15 01:57:59;;;;;;;7.22;3.72;;;10.90;99.90;;;10.33;100.00;97037.19;4962433;28;20385;-70
2022/11/15 02:00:27;;;;;;;9.35;4.43;;;10.90;99.90;;;10.33;100.00;97034.59;4960403;28;20047;-71
2022/11/15 02:02:55;;;;;;;7.97;4.03;;;10.90;99.90;;;10.43;100.00;97020.25;4964431;28;20063;-70
2022/11/15 02:05:22;;;;;;;5.68;3.47;;;10.90;99.90;;;10.34;100.00;97034.53;4977358;28;20050;-70
2022/11/15 02:07:49;;;;;;;6.10;3.47;;;11.00;99.90;;;10.35;100.00;97027.56;4945584;28;20051;-71
2022/11/15 02:10:23;;;;;;;7.18;3.45;;;10.90;99.90;;;10.29;100.00;97026.13;4964320;28;20066;-71
2022/11/15 02:12:51;;;;;;;6.57;3.65;;;10.90;99.90;;;10.24;100.00;97015.09;4979659;28;20090;-69
2022/11/15 02:15:18;;;;;;;5.28;3.83;;;10.80;99.90;;;10.31;100.00;97018.25;4963559;28;20051;-71
2022/11/15 02:18:24;;;;;;;6.40;3.30;;;10.80;99.90;;;10.23;100.00;97008.25;4965401;28;20138;-70
2022/11/15 02:21:19;;;;;;;6.55;3.40;;;10.80;99.90;;;10.24;100.00;97017.69;4963598;28;20051;-69
2022/11/15 02:24:27;;;;;;;8.23;4.10;;;10.80;99.90;;;10.22;100.00;97010.00;4978374;28;20472;-71
2022/11/15 02:27:48;;;;;;;7.60;3.33;;;10.80;99.90;;;10.24;100.00;96994.34;4962549;28;20429;-70
2022/11/15 02:30:40;;;;;;;6.55;3.85;;;10.80;99.90;;;10.26;100.00;96997.72;4965038;28;20051;-71
2022/11/15 02:33:30;;;;;;;6.15;4.07;;;10.80;99.90;;;10.25;100.00;96993.47;4960670;28;20090;-70
2022/11/15 02:36:03;;;;;;;6.22;3.65;;;10.90;99.90;;;10.29;100.00;97000.19;4959012;28;20052;-70
2022/11/15 02:39:07;;;;;;;5.93;3.33;;;10.80;99.90;;;10.27;100.00;96986.44;4963579;28;20054;-71
2022/11/15 02:41:47;;;;;;;5.47;3.65;;;10.90;99.90;;;10.35;100.00;96983.47;4962570;28;20047;-70
2022/11/15 02:44:33;;;;;;;5.40;3.28;;;10.90;99.90;;;10.30;100.00;96986.31;4961205;28;20053;-69
2022/11/15 02:47:16;;;;;;;5.97;3.92;;;10.90;99.90;;;10.29;100.00;96984.63;4978456;28;20055;-71
2022/11/15 02:49:56;;;;;;;7.07;3.95;;;10.90;99.90;;;10.32;100.00;96970.66;4961961;28;20050;-70
2022/11/15 02:52:27;;;;;;;7.57;4.25;;;10.90;99.90;;;10.36;100.00;96967.84;4976854;28;20493;-70
2022/11/15 02:54:56;;;;;;;6.80;3.92;;;11.00;99.90;;;10.38;100.00;96966.00;4964819;28;20051;-70
2022/11/15 02:57:57;;;;;;;6.47;3.50;;;11.00;99.90;;;10.31;100.00;96972.44;4963790;28;20416;-71
2022/11/15 03:00:24;;;;;;;6.72;3.80;;;10.90;99.90;;;10.41;100.00;96965.00;4962465;28;20055;-70
2022/11/15 03:03:12;;;;;;;5.90;4.10;;;11.00;99.90;;;10.36;100.00;96967.84;4964138;28;20050;-70
2022/11/15 03:06:23;;;;;;;7.97;4.30;;;11.00;99.90;;;10.40;100.00;96969.38;4963123;28;20072;-71
2022/11/15 03:09:00;;;;;;;9.68;4.15;;;11.00;99.90;;;10.41;100.00;96967.59;4966819;28;20054;-70
2022/11/15 03:11:33;;;;;;;7.85;4.00;;;11.00;99.90;;;10.39;100.00;96975.47;4959052;28;20058;-69
2022/11/15 03:14:21;;;;;;;8.38;4.63;;;11.00;99.90;;;10.39;100.00;96972.84;4975217;28;20053;-71
2022/11/15 03:17:21;;;;;;;5.18;3.40;;;11.00;99.90;;;10.39;100.00;96979.81;4978400;28;20058;-71
2022/11/15 03:19:53;;;;;;;7.80;4.50;;;11.00;99.90;;;10.41;100.00;96971.03;4961941;28;20054;-71
2022/11/15 03:22:24;;;;;;;6.47;3.40;;;11.10;99.90;;;10.39;100.00;96975.47;4961073;28;20053;-70
2022/11/15 03:24:56;;;;;;;6.93;4.07;;;11.10;99.90;;;10.48;100.00;96966.38;4976525;28;20512;-71
2022/11/15 03:27:28;;;;;;;4.93;3.78;;;11.10;99.90;;;10.44;100.00;96970.84;4976339;28;20047;-71
2022/11/15 03:30:07;;;;;;;6.38;3.50;;;11.10;99.90;;;10.40;100.00;96966.78;4961612;28;20054;-71
2022/11/15 03:32:50;;;;;;;6.32;4.25;;;11.10;99.90;;;10.41;100.00;96967.59;4977926;28;20672;-70
2022/11/15 03:35:23;;;;;;;6.03;3.80;;;11.10;99.90;;;10.46;100.00;96968.19;4961081;28;20061;-70
2022/11/15 03:38:15;;;;;;;4.75;3.25;;;11.10;99.90;;;10.46;100.00;96965.59;4977752;28;20651;-69
2022/11/15 03:40:54;;;;;;;5.60;3.42;;;11.10;99.90;;;10.44;100.00;96955.28;4961136;28;20055;-70
2022/11/15 03:43:36;;;;;;;6.43;3.30;;;11.10;99.90;;;10.41;100.00;96949.44;4975254;28;20488;-69
2022/11/15 03:46:25;;;;;;;5.28;3.70;;;11.00;99.90;;;10.37;100.00;96966.06;4975090;28;20161;-71
2022/11/15 03:49:04;;;;;;;5.50;4.00;;;11.00;99.90;;;10.39;100.00;96959.88;4961398;28;20042;-68
2022/11/15 03:51:31;;;;;;;7.18;3.65;;;11.00;99.90;;;10.43;100.00;96947.59;4975715;28;20061;-70
2022/11/15 03:53:58;;;;;;;8.73;3.63;;;11.00;99.90;;;10.41;100.00;96958.06;4962174;28;20054;-69
2022/11/15 03:56:25;;;;;;;5.97;3.80;;;10.90;99.90;;;10.39;100.00;96944.31;4975663;28;20057;-71
2022/11/15 03:58:52;;;;;;;5.80;3.75;;;10.90;99.90;;;10.36;100.00;96949.69;4962949;28;20050;-71
2022/11/15 04:01:19;;;;;;;6.15;3.60;;;10.90;99.90;;;10.35;100.00;96944.56;4962439;28;20054;-69
2022/11/15 04:03:46;;;;;;;8.00;3.78;;;11.00;99.90;;;10.38;100.00;96934.03;4946212;28;20042;-70
2022/11/15 04:06:13;;;;;;;5.82;3.20;;;11.00;99.90;;;10.39;100.00;96933.13;4958031;28;20054;-71
2022/11/15 04:08:39;;;;;;;4.72;3.50;;;10.90;99.90;;;10.40;100.00;96942.56;4964063;28;21223;-71
2022/11/15 04:11:06;;;;;;;5.25;3.80;;;10.90;99.90;;;10.40;100.00;96943.41;4965946;28;20058;-72
2022/11/15 04:13:33;;;;;;;6.15;3.00;;;10.90;99.90;;;10.29;100.00;96943.13;4963879;28;20054;-71
2022/11/15 04:16:00;;;;;;;5.07;3.45;;;11.00;99.90;;;10.32;100.00;96944.72;4968480;28;20133;-71
2022/11/15 04:18:27;;;;;;;5.90;3.08;;;10.90;99.90;;;10.31;100.00;96945.63;4964564;28;20050;-70
2022/11/15 04:26:25;;;;;;;4.90;3.35;;;10.80;99.90;;;10.17;100.00;96930.75;4965158;28;20109;-71
2022/11/15 04:31:37;;;;;;;5.65;3.28;;;10.70;99.90;;;10.07;100.00;96924.38;4967986;28;20051;-71
2022/11/15 04:34:04;;;;;;;5.03;3.42;;;10.70;99.90;;;9.97;100.00;96924.00;4964428;28;20043;-71
2022/11/15 04:39:16;;;;;;;6.18;3.53;;;10.50;99.90;;;10.00;100.00;96919.50;4965687;28;20054;-70
2022/11/15 04:41:43;;;;;;;6.45;3.28;;;10.50;99.90;;;9.96;100.00;96922.31;4977165;28;20077;-71
2022/11/15 04:44:10;;;;;;;6.03;3.63;;;10.50;99.90;;;9.97;100.00;96921.41;4966863;28;20046;-71
2022/11/15 04:46:37;;;;;;;5.25;3.05;;;10.50;99.90;;;9.96;100.00;96919.72;4967056;28;20047;-70
2022/11/15 04:49:04;;;;;;;7.50;3.50;;;10.50;99.90;;;9.93;100.00;96922.47;4948322;28;20058;-69
2022/11/15 04:51:31;;;;;;;4.68;3.15;;;10.50;99.90;;;9.99;100.00;96917.81;4956496;28;20073;-69
2022/11/15 04:53:58;;;;;;;4.32;3.47;;;10.60;99.90;;;10.02;100.00;96920.25;4956838;28;20627;-70
2022/11/15 04:56:25;;;;;;;5.65;3.08;;;10.60;99.90;;;10.04;100.00;96920.19;4963228;28;20046;-71
2022/11/15 04:58:52;;;;;;;5.47;3.55;;;10.60;99.90;;;10.05;100.00;96922.69;4965927;28;20076;-71
2022/11/15 05:01:19;;;;;;;4.72;2.50;;;10.60;99.90;;;9.97;100.00;96913.63;4967903;28;20054;-70
2022/11/15 05:06:31;;;;;;;3.40;2.60;;;10.50;99.90;;;9.80;100.00;96904.94;4963153;28;20077;-71
2022/11/15 05:08:58;;;;;;;5.72;3.33;;;10.40;99.90;;;9.75;100.00;96906.09;4966634;28;20121;-71
2022/11/15 05:11:27;;;;;;;3.70;2.42;;;10.40;99.90;;;9.76;100.00;96907.75;4968246;28;20084;-70
2022/11/15 05:13:54;;;;;;;4.28;2.40;;;10.40;99.90;;;9.74;100.00;96910.44;4960226;28;20061;-71
2022/11/15 05:16:21;;;;;;;4.88;2.65;;;10.40;99.90;;;9.80;100.00;96917.06;4964872;28;20058;-70
2022/11/15 05:18:54;;;;;;;4.10;2.50;;;10.40;99.90;;;9.82;100.00;96907.47;4976753;28;20053;-70
2022/11/15 05:21:22;;;;;;;5.40;2.45;;;10.40;99.90;;;9.92;100.00;96907.81;4964282;28;20053;-69
2022/11/15 05:23:49;;;;;;;4.05;2.30;;;10.40;99.90;;;9.86;100.00;96897.78;4962406;28;20062;-70
2022/11/15 05:26:17;;;;;;;5.22;2.42;;;10.40;99.90;;;9.90;100.00;96894.97;4964776;28;20055;-70
2022/11/15 05:28:45;;;;;;;4.57;2.28;;;10.40;99.90;;;9.88;100.00;96890.78;4964191;28;20050;-71
2022/11/15 05:31:15;;;;;;;3.70;2.15;;;10.40;99.90;;;9.91;100.00;96894.03;4965887;28;20050;-71
2022/11/15 05:33:44;;;;;;;4.95;2.47;;;10.40;99.90;;;9.86;100.00;96895.19;4978573;28;20366;-70
2022/11/15 05:36:19;;;;;;;4.45;2.38;;;10.40;99.90;;;9.86;100.00;96902.97;4959075;28;20059;-71
2022/11/15 05:38:48;;;;;;;4.15;2.05;;;10.40;99.90;;;9.82;100.00;96904.88;4965791;28;20476;-71
2022/11/15 05:41:17;;;;;;;4.32;2.00;;;10.40;99.90;;;9.90;100.00;96913.09;4965134;28;20126;-71
2022/11/15 05:43:44;;;;;;;4.63;1.98;;;10.40;99.90;;;9.95;100.00;96900.75;4965360;28;20082;-70
2022/11/15 05:46:13;;;;;;;3.50;2.15;;;10.50;99.90;;;10.02;100.00;96907.28;4962229;28;20051;-70
2022/11/15 05:48:45;;;;;;;3.70;1.98;;;10.50;99.90;;;9.95;100.00;96905.94;4964180;28;20595;-70
2022/11/15 05:51:14;;;;;;;3.65;1.90;;;10.50;99.90;;;9.94;100.00;96904.22;4963307;28;20108;-71
2022/11/15 05:53:41;;;;;;;3.47;2.05;;;10.50;99.90;;;9.94;100.00;96901.63;4962211;28;20626;-70
2022/11/15 05:56:09;;;;;;;5.68;2.13;;;10.50;99.90;;;9.88;100.00;96903.75;4964565;28;20432;-70
2022/11/15 05:58:37;;;;;;;3.75;2.05;;;10.50;99.90;;;9.87;100.00;96897.69;4961600;28;20520;-71
2022/11/15 06:01:04;;;;;;;3.22;2.15;;;10.50;99.90;;;9.83;100.00;96904.81;4966649;28;20072;-71
2022/11/15 06:03:31;;;;;;;4.93;2.10;;;10.50;99.90;;;9.84;100.00;96911.66;4967974;28;20538;-71
2022/11/15 06:05:58;;;;;;;4.30;2.03;;;10.50;99.90;;;9.92;100.00;96906.09;4965622;28;20043;-71
2022/11/15 06:08:25;;;;;;;3.35;1.67;;;10.50;99.90;;;9.88;100.00;96903.75;4966722;28;20054;-70
2022/11/15 06:10:52;;;;;;;5.05;2.65;;;10.50;99.90;;;9.89;100.00;96905.41;4966521;28;20579;-69
2022/11/15 06:13:19;;;;;;;3.60;2.30;;;10.50;99.90;;;9.89;100.00;96911.41;4965830;28;20062;-68
2022/11/15 06:15:46;;;;;;;5.68;2.40;;;10.50;99.90;;;9.86;100.00;96913.34;4968289;28;20595;-70
2022/11/15 06:18:13;;;;;;;9.35;2.75;;;10.50;99.90;;;9.91;100.00;96913.94;4967372;28;20071;-70
2022/11/15 06:20:40;;;;;;;3.60;2.08;;;10.60;99.90;;;9.88;100.00;96908.91;4966225;28;20067;-68
2022/11/15 06:23:07;;;;;;;4.35;2.38;;;10.60;99.90;;;9.93;100.00;96897.38;4967432;28;20731;-70
2022/11/15 06:25:34;;;;;;;3.95;2.35;;;10.60;99.90;;;9.91;100.00;96901.81;4962514;28;20047;-70
2022/11/15 06:28:00;;;;;;;4.07;2.22;;;10.60;99.90;;;9.96;100.00;96902.41;4963468;28;20050;-70
2022/11/15 06:30:27;;;;;;;4.63;2.90;;;10.50;99.90;;;9.90;100.00;96904.47;4965745;28;20054;-70
2022/11/15 06:33:05;;;;;;;4.65;2.60;;;10.60;99.90;;;9.95;100.00;96903.34;4962349;28;20429;-70
2022/11/15 06:35:35;;;;;;;5.35;3.25;;;10.50;99.90;;;9.90;100.00;96910.50;4974655;28;20054;-70
2022/11/15 06:38:05;;;;;;;7.93;3.15;;;10.50;99.90;;;9.90;100.00;96909.66;4961114;28;20053;-70
2022/11/15 06:40:35;;;;;;;4.43;3.03;;;10.50;99.90;;;9.94;100.00;96911.19;4962196;28;20058;-70
2022/11/15 06:43:03;;;;;;;7.82;3.28;;;10.50;99.90;;;9.89;100.00;96906.22;4962398;28;20050;-70
2022/11/15 06:45:31;;;;;;;8.10;3.60;;;10.50;99.90;;;9.82;100.00;96916.06;4964052;28;20050;-70
2022/11/15 06:47:58;;;;;;;8.15;4.22;;;10.50;99.90;;;9.79;100.00;96921.41;4967053;28;20055;-70
2022/11/15 06:50:25;;;;;;;6.38;3.50;;;10.50;99.90;;;9.82;100.00;96923.84;4980299;28;20058;-70
2022/11/15 06:52:53;;;;;;;5.35;3.70;;;10.50;99.90;;;9.77;100.00;96920.66;4966462;28;20043;-69
2022/11/15 06:55:20;;;;;;;6.35;3.85;;;10.60;99.90;;;9.74;100.00;96928.59;4966768;28;20353;-69
2022/11/15 06:57:49;;;;;;;5.95;3.55;;;10.60;99.90;;;9.82;100.00;96923.00;4981726;28;20050;-69
2022/11/15 07:00:19;;;;;;;5.95;3.92;;;10.50;99.90;;;9.75;100.00;96917.28;4966249;28;20050;-69
2022/11/15 07:02:46;;;;;;;7.30;3.78;;;10.50;99.90;;;9.87;100.00;96913.25;4981677;28;20043;-69
2022/11/15 07:05:15;;;;;;;5.25;3.28;;;10.60;99.90;;;9.83;100.00;96920.34;4964844;28;20077;-69
2022/11/15 07:07:42;;;;;;;6.43;4.18;;;10.50;99.90;;;9.84;100.00;96921.19;4964798;28;20046;-69
2022/11/15 07:10:09;;;;;;;6.75;3.65;;;10.50;99.90;;;9.81;100.00;96909.22;4980613;28;20130;-69
2022/11/15 07:12:36;;;;;;;9.10;4.10;;;10.50;99.90;;;9.81;100.00;96905.78;4966970;28;20520;-70
2022/11/15 07:15:04;;;;;;;5.45;3.10;;;10.50;99.90;;;9.87;100.00;96904.63;4963866;28;20051;-69
2022/11/15 07:17:31;;;;;;;5.28;3.40;;;10.50;99.90;;;9.86;100.00;96903.81;4963950;28;20050;-69
2022/11/15 07:19:58;;;;;;;5.20;3.72;;;10.50;99.90;;;9.81;100.00;96909.22;4979896;28;20488;-69
2022/11/15 07:22:25;;;;;;;4.57;2.85;;;10.50;99.90;;;9.94;100.00;96912.00;4965287;28;20055;-69
2022/11/15 07:24:52;;;;;;;5.80;3.13;;;10.50;99.90;;;9.86;100.00;96921.13;4981285;28;20458;-70
2022/11/15 07:27:19;;;;;;;5.93;3.10;;;10.50;99.90;;;9.85;100.00;96912.47;4967268;28;20383;-68
2022/11/15 07:29:46;;;;;;;5.00;2.63;;;10.50;99.90;;;9.89;100.00;96906.22;4965780;28;20517;-69
2022/11/15 07:32:13;;;;;;;4.68;3.30;;;10.50;99.90;;;9.92;100.00;96918.19;4965920;28;20054;-70
2022/11/15 07:34:40;;;;;;;5.78;3.38;;;10.60;99.90;;;9.99;100.00;96915.22;4965671;28;20477;-69
2022/11/15 07:37:07;;;;;;;4.47;3.13;;;10.70;99.90;;;9.91;100.00;96917.38;4962358;28;20157;-69
2022/11/15 07:39:34;;;;;;;5.35;2.70;;;10.70;99.90;;;9.96;100.00;96912.78;4965857;28;20043;-69
2022/11/15 07:44:46;;;;;;;5.40;3.42;;;10.70;99.90;;;9.98;100.00;96913.53;4967190;28;20065;-69
2022/11/15 07:47:13;;;;;;;5.22;3.53;;;10.70;99.90;;;10.10;100.00;96911.25;4969493;28;20051;-70
2022/11/15 07:49:40;;;;;;;5.63;2.88;;;10.80;99.90;;;10.14;100.00;96910.16;4970189;28;20124;-69
2022/11/15 07:52:07;;;;;;;6.43;3.00;;;10.90;99.90;;;10.10;100.00;96906.06;4969859;28;20047;-70
2022/11/15 07:54:34;;;;;;;7.13;3.20;;;10.90;99.90;;;10.22;100.00;96910.63;4968434;28;20050;-70
2022/11/15 07:57:01;;;;;;;4.40;2.88;;;10.90;99.90;;;10.09;100.00;96913.00;4970603;28;20095;-71
2022/11/15 07:59:34;;;;;;;8.70;3.70;;;10.90;99.90;;;10.21;100.00;96922.72;4969957;28;20058;-70
2022/11/15 08:02:02;;;;;;;6.05;3.40;;;11.00;99.90;;;10.22;100.00;96916.66;4969759;28;20361;-71
2022/11/15 08:04:29;;;;;;;4.45;2.75;;;11.00;99.90;;;10.25;100.00;96921.66;4984648;28;20039;-70
2022/11/15 08:06:57;;;;;;;4.00;3.10;;;11.10;99.90;;;10.30;100.00;96918.03;4969174;28;20054;-71
2022/11/15 08:09:24;;;;;;;5.15;2.70;;;11.10;99.90;;;10.43;100.00;96917.31;4970491;28;20042;-70
2022/11/15 08:11:50;;;;;;;4.95;3.20;;;11.20;99.90;;;10.34;100.00;96924.75;4969699;28;20050;-69
2022/11/15 08:14:17;;;;;;;5.15;2.88;;;11.20;99.90;;;10.43;100.00;96924.25;4969748;28;20054;-70
2022/11/15 08:16:44;;;;;;;5.32;3.22;;;11.20;99.90;;;10.37;100.00;96920.22;4970606;28;20057;-69
2022/11/15 08:19:11;;;;;;;4.75;3.08;;;11.30;99.90;;;10.59;100.00;96925.13;4982808;28;20058;-70
2022/11/15 08:21:38;;;;;;;5.55;3.10;;;11.30;99.90;;;10.76;100.00;96925.97;4969761;28;20047;-70
2022/11/15 08:24:05;;;;;;;5.20;2.67;;;11.50;99.90;;;10.75;100.00;96917.34;4969915;28;20085;-70
2022/11/15 08:26:32;;;;;;;4.25;3.13;;;11.60;99.90;;;10.54;100.00;96924.53;4969821;28;20073;-70
2022/11/15 08:28:59;;;;;;;5.32;2.90;;;11.70;99.90;;;10.54;100.00;96924.53;4970129;28;20062;-70
2022/11/15 08:31:26;;;;;;;5.93;3.58;;;11.70;99.90;;;10.50;100.00;96922.19;4969453;28;20386;-70
2022/11/15 08:33:53;;;;;;;5.25;3.25;;;11.80;99.90;;;10.53;100.00;96922.00;4967720;28;20488;-70
2022/11/15 08:36:20;;;;;;;5.47;3.20;;;11.70;99.90;;;10.74;100.00;96913.09;4970096;28;20098;-70
2022/11/15 08:38:47;;;;;;;4.43;2.65;;;11.80;99.90;;;10.74;100.00;96918.28;4961207;28;20477;-71
2022/11/15 08:41:32;;;;;;;4.15;2.67;;;11.70;99.90;;;10.73;100.00;96919.19;4969674;28;20484;-70
2022/11/15 08:43:59;;;;;;;4.38;2.70;;;11.70;99.90;;;10.82;100.00;96913.50;4967803;28;20058;-70
2022/11/15 08:46:26;;;;;;;4.00;2.40;;;11.70;99.90;;;11.00;100.00;96916.84;4968044;28;20051;-70
2022/11/15 08:48:53;;;;;;;4.75;2.50;;;11.70;99.90;;;10.97;100.00;96905.78;4982832;28;20054;-69
2022/11/15 08:51:20;;;;;;;4.55;2.95;;;11.80;99.90;;;10.85;100.00;96905.53;4969218;28;20050;-71
2022/11/15 08:53:47;;;;;;;6.05;2.95;;;11.80;99.90;;;10.78;100.00;96908.56;4968549;28;20058;-70
2022/11/15 08:56:15;;;;;;;4.75;2.58;;;11.80;99.90;;;10.95;100.00;96898.09;4967317;28;20053;-70
2022/11/15 08:58:42;;;;;;;4.70;2.55;;;11.90;99.90;;;10.98;100.00;96902.28;4968405;28;20061;-70
2022/11/15 09:01:20;;;;;;;4.05;2.38;;;11.90;99.90;;;11.04;100.00;96901.97;4968407;28;20145;-71
2022/11/15 09:03:47;;;;;;;4.32;2.80;;;11.90;99.90;;;10.86;100.00;96894.25;4966402;28;20079;-69
2022/11/15 09:06:15;;;;;;;7.07;2.80;;;12.00;99.90;;;10.81;100.00;96896.25;4969465;28;20150;-70
2022/11/15 09:08:42;;;;;;;3.45;2.55;;;12.00;99.90;;;11.12;100.00;96896.34;4966788;28;20043;-70
2022/11/15 09:11:20;;;;;;;4.43;2.25;;;12.10;99.90;;;11.22;100.00;96887.09;4968988;28;20050;-69
2022/11/15 09:13:47;;;;;;;4.40;2.50;;;12.20;99.90;;;11.23;100.00;96888.78;4968294;28;20573;-70
2022/11/15 09:16:15;;;;;;;6.10;1.98;;;12.20;99.90;;;11.36;100.00;96886.31;4965834;28;20069;-70
2022/11/15 09:18:42;;;;;;;6.20;2.10;;;12.30;99.90;;;11.50;100.00;96883.78;4968565;28;20113;-70
2022/11/15 09:21:09;;;;;;;4.75;2.30;;;12.50;99.90;;;11.51;100.00;96878.47;4967899;28;20090;-70
2022/11/15 09:23:37;;;;;;;3.83;2.13;;;12.50;99.90;;;11.38;100.00;96884.47;4967164;28;20057;-70
2022/11/15 09:26:05;;;;;;;4.22;2.47;;;12.50;99.90;;;11.64;100.00;96885.56;4967330;28;20166;-70
2022/11/15 09:28:33;;;;;;;3.53;2.33;;;12.60;99.90;;;11.24;100.00;96888.69;4968748;28;20142;-69
2022/11/15 09:31:03;;;;;;;4.55;2.80;;;12.50;99.90;;;11.16;100.00;96893.47;4968913;28;20095;-71
2022/11/15 09:33:30;;;;;;;4.90;2.45;;;12.50;99.90;;;11.25;100.00;96890.34;4979069;28;20421;-71
2022/11/15 09:36:09;;;;;;;4.07;1.85;;;12.40;99.90;;;11.35;100.00;96897.63;4965445;28;20050;-71
2022/11/15 09:38:36;;;;;;;5.05;2.60;;;12.30;99.90;;;11.17;100.00;96907.28;4965604;28;20468;-71
2022/11/15 09:41:12;;;;;;;5.32;2.67;;;12.30;99.90;;;11.38;100.00;96892.25;4966484;28;20062;-70
2022/11/15 09:44:06;;;;;;;4.78;2.28;;;12.40;99.90;;;11.37;100.00;96894.03;4968434;28;20386;-70
2022/11/15 09:47:20;;;;;;;7.30;4.50;;;12.40;99.90;;;11.06;100.00;96889.69;4967529;28;20062;-70
2022/11/15 09:49:53;;;;;;;5.57;2.58;;;12.30;99.90;;;11.26;100.00;96898.97;4966957;28;20057;-70
2022/11/15 09:52:24;;;;;;;4.28;2.40;;;12.20;99.90;;;11.20;100.00;96896.72;4951912;28;20050;-69
2022/11/15 09:54:53;;;;;;;8.63;3.03;;;12.10;99.90;;;11.14;100.00;96905.72;4979562;28;20059;-69
2022/11/15 09:58:08;;;;;;;6.82;4.22;;;12.20;99.90;;;11.34;100.00;96902.00;4968240;28;20161;-69
2022/11/15 10:00:38;;;;;;;;;;;12.30;99.90;;;11.24;100.00;96898.22;4967127;28;20054;-70
2022/11/15 10:03:26;;;;;;;4.53;2.50;;;12.30;99.90;;;11.31;100.00;96896.97;4966391;28;19926;-70
2022/11/15 10:05:58;;;;;;;4.68;2.35;;;12.40;99.90;;;11.47;100.00;96891.72;4975513;28;20054;-70
2022/11/15 10:08:37;;;;;;;3.55;1.73;;;12.50;99.90;;;11.63;100.00;96871.75;4961046;28;20058;-69
2022/11/15 10:11:11;;;;;;;4.30;1.67;;;12.70;99.90;;;11.61;100.00;96868.41;4965102;28;20054;-70
2022/11/15 10:14:05;;;;;;;3.05;1.60;;;12.80;99.90;;;12.15;100.00;96857.44;4965541;28;20104;-70
2022/11/15 10:17:33;;;;;;;2.80;1.65;;;13.00;99.90;;;12.43;100.00;96853.16;4956608;28;20051;-69
2022/11/15 10:20:35;;;;;;;2.17;1.33;;;13.30;99.90;;;12.24;100.00;96851.69;4963381;28;20063;-69
2022/11/15 10:23:11;;;;;;;2.83;1.50;;;13.60;99.90;;;12.42;100.00;96848.88;4966943;28;20516;-70
2022/11/15 10:25:38;;;;;;;2.60;1.10;;;13.60;99.90;;;12.58;100.00;96843.56;4964710;28;20055;-70
2022/11/15 10:28:28;;;;;;;3.75;1.20;;;13.70;99.90;;;12.75;100.00;96841.59;4966220;28;20047;-70
2022/11/15 10:30:59;;;;;;;5.43;1.17;;;13.90;99.90;;;12.61;100.00;96851.19;4980594;28;20050;-70
2022/11/15 10:33:29;;;;;;;2.80;1.10;;;14.00;99.90;;;12.56;100.00;96844.47;4966946;28;20047;-70
2022/11/15 10:36:08;;;;;;;2.78;0.90;;;13.90;99.90;;;12.50;100.00;96850.09;4965025;28;20531;-70
2022/11/15 10:38:50;;;;;;;2.60;1.10;;;13.80;99.90;;;12.38;100.00;96843.03;4965504;28;20748;-70
2022/11/15 10:41:31;;;;;;;3.40;1.33;;;13.70;99.90;;;12.61;100.00;96836.38;4965720;28;20054;-70
2022/11/15 10:44:28;;;;;;;2.63;1.25;;;13.80;99.90;;;12.95;100.00;96827.31;4966009;28;20050;-70
2022/11/15 10:46:55;;;;;;;4.60;1.10;;;14.00;99.90;;;13.04;100.00;96820.63;4965160;28;20069;-69
2022/11/15 10:49:30;;;;;;;3.70;1.33;;;14.10;99.90;;;13.15;100.00;96818.16;4966719;28;20051;-71
2022/11/15 10:52:20;;;;;;;3.78;1.10;;;14.30;99.90;;;13.34;100.00;96810.03;4964315;28;20495;-69